Time;durP1;ratioP1;P1;durP2;ratioP2;P2;SDS_P1;SDS_P2;PMS_P1;PMS_P2;Temp;Humidity;BMP_temperature;BMP_pressure;BME280_temperature;BME280_humidity;BME280_pressure;Samples;Min_cycle;Max_cycle;Signal;HPM_P1;HPM_P2
2021/06/29 00:00:08;;;;;;;12.27;11.30;;;20.10;99.90;;;;;;5046451;28;20698;-40
2021/06/29 00:02:33;;;;;;;11.50;10.50;;;20.10;99.90;;;;;;5045815;28;20193;-42
2021/06/29 00:04:59;;;;;;;11.27;10.47;;;20.10;99.90;;;;;;5045637;28;20454;-42
2021/06/29 00:07:25;;;;;;;12.10;11.13;;;20.00;99.90;;;;;;5040293;28;20194;-44
2021/06/29 00:09:50;;;;;;;12.33;11.30;;;20.00;99.90;;;;;;5045904;28;20209;-44
2021/06/29 00:12:16;;;;;;;13.23;11.73;;;20.00;99.90;;;;;;5046039;28;20194;-43
2021/06/29 00:14:44;;;;;;;12.67;11.67;;;20.00;99.90;;;;;;5045562;28;20436;-46
2021/06/29 00:17:10;;;;;;;13.63;12.53;;;20.00;99.90;;;;;;5045834;28;20454;-44
2021/06/29 00:19:36;;;;;;;13.17;11.90;;;20.00;99.90;;;;;;5046396;28;20424;-41
2021/06/29 00:22:03;;;;;;;12.93;11.80;;;20.00;99.90;;;;;;5043262;28;20440;-40
2021/06/29 00:24:28;;;;;;;12.40;11.30;;;19.90;99.90;;;;;;5046401;28;20470;-41
2021/06/29 00:26:54;;;;;;;13.50;12.20;;;19.90;99.90;;;;;;5050233;28;20464;-45
2021/06/29 00:29:20;;;;;;;12.03;11.10;;;19.90;99.90;;;;;;5050151;28;20197;-43
2021/06/29 00:31:45;;;;;;;13.33;12.33;;;19.90;99.90;;;;;;5048911;28;20489;-42
2021/06/29 00:34:11;;;;;;;14.30;13.13;;;19.90;99.90;;;;;;5049318;28;20213;-44
2021/06/29 00:36:37;;;;;;;13.33;12.13;;;19.90;99.90;;;;;;5044382;28;20198;-45
2021/06/29 00:39:04;;;;;;;13.67;12.57;;;19.90;99.90;;;;;;5042343;28;20443;-44
2021/06/29 00:41:30;;;;;;;13.23;12.13;;;19.90;99.90;;;;;;5049786;28;20196;-43
2021/06/29 00:43:56;;;;;;;12.77;11.70;;;19.90;99.90;;;;;;5049485;28;20420;-41
2021/06/29 00:46:22;;;;;;;12.90;11.90;;;19.90;99.90;;;;;;5049730;28;20424;-42
2021/06/29 00:48:48;;;;;;;12.67;11.60;;;19.80;99.90;;;;;;5049663;28;20482;-41
2021/06/29 00:51:16;;;;;;;12.00;11.10;;;19.80;99.90;;;;;;5049475;28;20202;-45
2021/06/29 00:53:42;;;;;;;13.10;12.00;;;19.80;99.90;;;;;;5039695;28;20468;-41
2021/06/29 00:56:14;;;;;;;13.87;12.77;;;19.80;99.90;;;;;;5049724;28;20420;-44
2021/06/29 00:58:44;;;;;;;13.50;12.30;;;19.80;99.90;;;;;;5048323;28;20443;-43
2021/06/29 01:01:10;;;;;;;13.87;12.67;;;19.70;99.90;;;;;;5049502;28;20455;-40
2021/06/29 01:03:43;;;;;;;14.77;13.57;;;19.80;99.90;;;;;;5048532;28;20435;-43
2021/06/29 01:06:11;;;;;;;13.10;12.00;;;19.70;99.90;;;;;;5048346;28;20459;-41
2021/06/29 01:08:37;;;;;;;14.60;13.40;;;19.70;99.90;;;;;;5034844;28;20902;-43
2021/06/29 01:11:03;;;;;;;13.70;12.50;;;19.70;99.90;;;;;;5049298;28;20431;-41
2021/06/29 01:13:32;;;;;;;14.07;12.90;;;19.70;99.90;;;;;;5048840;28;20947;-42
2021/06/29 01:15:59;;;;;;;13.40;12.20;;;19.70;99.90;;;;;;5036644;28;20235;-42
2021/06/29 01:18:25;;;;;;;14.47;13.17;;;19.70;99.90;;;;;;5049324;28;20428;-40
2021/06/29 01:20:51;;;;;;;13.03;12.03;;;19.70;99.90;;;;;;5049398;28;20427;-42
2021/06/29 01:23:21;;;;;;;15.20;13.90;;;19.70;99.90;;;;;;5034919;28;20195;-42
2021/06/29 01:26:01;;;;;;;13.97;12.80;;;19.70;99.90;;;;;;5048791;28;20565;-41
2021/06/29 01:28:31;;;;;;;13.83;12.63;;;19.70;99.90;;;;;;5045424;28;20788;-40
2021/06/29 01:31:07;;;;;;;13.27;12.17;;;19.70;99.90;;;;;;5048899;28;20420;-43
2021/06/29 01:33:33;;;;;;;14.33;13.13;;;19.70;99.90;;;;;;5047804;28;21031;-45
2021/06/29 01:36:00;;;;;;;12.50;11.57;;;19.70;99.90;;;;;;5048262;28;20462;-41
2021/06/29 01:38:26;;;;;;;12.93;11.83;;;19.70;99.90;;;;;;5041964;28;20221;-45
2021/06/29 01:40:52;;;;;;;12.90;11.87;;;19.70;99.90;;;;;;5048414;28;20475;-44
2021/06/29 01:43:29;;;;;;;14.00;12.80;;;19.70;99.90;;;;;;5047832;28;20210;-41
2021/06/29 01:45:56;;;;;;;13.07;11.97;;;19.70;99.90;;;;;;5048921;28;20464;-41
2021/06/29 01:48:23;;;;;;;13.70;12.27;;;19.60;99.90;;;;;;5035895;28;20420;-42
2021/06/29 01:50:51;;;;;;;13.20;12.10;;;19.60;99.90;;;;;;5048717;28;20958;-42
2021/06/29 01:53:17;;;;;;;13.53;12.27;;;19.60;99.90;;;;;;5039572;28;20440;-41
2021/06/29 01:55:43;;;;;;;12.40;11.40;;;19.60;99.90;;;;;;5046304;28;20458;-43
2021/06/29 01:58:08;;;;;;;12.93;11.93;;;19.60;99.90;;;;;;5048759;28;20424;-41
2021/06/29 02:00:34;;;;;;;12.80;11.80;;;19.60;99.90;;;;;;5048594;28;20824;-45
2021/06/29 02:03:00;;;;;;;12.67;11.67;;;19.60;99.90;;;;;;5034755;28;20626;-42
2021/06/29 02:05:26;;;;;;;13.00;11.90;;;19.70;99.90;;;;;;5047872;28;20648;-43
2021/06/29 02:07:51;;;;;;;13.03;12.03;;;19.70;99.90;;;;;;5040845;28;20197;-41
2021/06/29 02:10:17;;;;;;;13.13;11.90;;;19.70;99.90;;;;;;5042852;28;20711;-42
2021/06/29 02:12:44;;;;;;;12.53;11.43;;;19.70;99.90;;;;;;5047917;28;20193;-41
2021/06/29 02:15:12;;;;;;;12.50;11.50;;;19.80;99.90;;;;;;5047346;28;20464;-42
2021/06/29 02:17:38;;;;;;;11.87;10.87;;;19.80;99.90;;;;;;5046493;28;20425;-42
2021/06/29 02:20:07;;;;;;;12.53;11.43;;;19.80;99.90;;;;;;5048418;28;20428;-44
2021/06/29 02:22:33;;;;;;;12.20;11.30;;;19.80;99.90;;;;;;5043819;28;20494;-42
2021/06/29 02:25:00;;;;;;;12.43;11.40;;;19.80;99.90;;;;;;5041706;28;20440;-41
2021/06/29 02:27:29;;;;;;;12.60;11.53;;;19.70;99.90;;;;;;5048254;28;20428;-41
2021/06/29 02:29:56;;;;;;;13.00;11.70;;;19.70;99.90;;;;;;5046582;28;20444;-41
2021/06/29 02:32:21;;;;;;;12.47;11.47;;;19.60;99.90;;;;;;5047946;28;20957;-41
2021/06/29 02:34:47;;;;;;;13.57;12.43;;;19.60;99.90;;;;;;5047644;28;20463;-41
2021/06/29 02:37:13;;;;;;;13.13;12.03;;;19.60;99.90;;;;;;5046509;28;20186;-41
2021/06/29 02:39:39;;;;;;;12.83;11.83;;;19.60;99.90;;;;;;5040944;28;20216;-41
2021/06/29 02:42:05;;;;;;;12.60;11.50;;;19.60;99.90;;;;;;5048048;28;20194;-41
2021/06/29 02:44:32;;;;;;;12.70;11.70;;;19.50;99.90;;;;;;5045974;28;20198;-41
2021/06/29 02:46:58;;;;;;;13.77;12.60;;;19.50;99.90;;;;;;5046632;28;20498;-43
2021/06/29 02:49:23;;;;;;;15.83;14.00;;;19.60;99.90;;;;;;5046329;28;20784;-45
2021/06/29 02:51:49;;;;;;;13.13;11.90;;;19.50;99.90;;;;;;5046131;28;20251;-43
2021/06/29 02:54:15;;;;;;;13.90;12.80;;;19.50;99.90;;;;;;5036339;28;20217;-43
2021/06/29 02:56:41;;;;;;;16.20;14.60;;;19.40;99.90;;;;;;5047565;28;20691;-41
2021/06/29 02:59:08;;;;;;;15.20;14.00;;;19.40;99.90;;;;;;5047376;28;20255;-42
2021/06/29 03:01:34;;;;;;;15.37;14.00;;;19.30;99.90;;;;;;5047515;28;20200;-41
2021/06/29 03:04:00;;;;;;;15.10;13.60;;;19.20;99.90;;;;;;5046326;28;20433;-42
2021/06/29 03:06:25;;;;;;;17.00;15.50;;;19.20;99.90;;;;;;5047033;28;20190;-42
2021/06/29 03:08:51;;;;;;;15.67;14.37;;;19.10;99.90;;;;;;5035769;28;20217;-40
2021/06/29 03:11:17;;;;;;;16.70;15.07;;;19.00;99.90;;;;;;5047040;28;20194;-42
2021/06/29 03:13:43;;;;;;;16.40;15.07;;;18.90;99.90;;;;;;5046266;28;20371;-42
2021/06/29 03:16:08;;;;;;;16.50;14.90;;;18.80;99.90;;;;;;5025658;28;20182;-41
2021/06/29 03:18:34;;;;;;;16.77;15.30;;;18.80;99.90;;;;;;5045724;28;20194;-41
2021/06/29 03:21:00;;;;;;;16.53;14.93;;;18.80;99.90;;;;;;5046577;28;20204;-41
2021/06/29 03:23:26;;;;;;;17.30;15.87;;;18.80;99.90;;;;;;5040725;28;20832;-43
2021/06/29 03:25:51;;;;;;;17.67;16.07;;;18.70;99.90;;;;;;5038898;28;20193;-41
2021/06/29 03:28:17;;;;;;;19.13;14.90;;;18.70;99.90;;;;;;5046726;28;20198;-40
2021/06/29 03:30:43;;;;;;;17.40;15.57;;;18.70;99.90;;;;;;5046722;28;20197;-44
2021/06/29 03:33:09;;;;;;;17.27;15.77;;;18.70;99.90;;;;;;5045994;28;20240;-41
2021/06/29 03:35:35;;;;;;;18.10;16.50;;;18.80;99.90;;;;;;5046391;28;20507;-41
2021/06/29 03:38:01;;;;;;;17.83;16.13;;;18.80;99.90;;;;;;5044046;28;20185;-43
2021/06/29 03:40:27;;;;;;;17.07;15.67;;;18.80;99.90;;;;;;5047076;28;20415;-43
2021/06/29 03:42:53;;;;;;;17.83;16.07;;;18.80;99.90;;;;;;5045616;28;20801;-41
2021/06/29 03:45:18;;;;;;;17.13;15.73;;;18.80;99.90;;;;;;5046595;28;20696;-40
2021/06/29 03:47:44;;;;;;;17.60;16.10;;;18.80;99.90;;;;;;5046831;28;20478;-42
2021/06/29 03:50:11;;;;;;;17.93;16.17;;;18.80;99.90;;;;;;5046622;28;20202;-41
2021/06/29 03:52:37;;;;;;;18.43;16.73;;;18.80;99.90;;;;;;5046522;28;20939;-41
2021/06/29 03:55:05;;;;;;;18.47;16.73;;;18.80;99.90;;;;;;5037185;28;20511;-41
2021/06/29 03:57:31;;;;;;;16.93;15.33;;;18.70;99.90;;;;;;5046118;28;20427;-40
2021/06/29 03:59:57;;;;;;;16.13;14.53;;;18.80;99.90;;;;;;5046255;28;20463;-40
2021/06/29 04:02:23;;;;;;;18.27;16.17;;;18.80;99.90;;;;;;5044731;28;20221;-44
2021/06/29 04:04:50;;;;;;;17.93;16.40;;;18.80;99.90;;;;;;5045588;28;20204;-43
2021/06/29 04:07:16;;;;;;;17.37;15.63;;;18.80;99.90;;;;;;5046143;28;20432;-44
2021/06/29 04:09:42;;;;;;;16.00;14.50;;;18.90;99.90;;;;;;5034650;28;20526;-43
2021/06/29 04:12:08;;;;;;;17.50;15.90;;;18.80;99.90;;;;;;5046119;28;20953;-40
2021/06/29 04:14:34;;;;;;;15.90;14.50;;;18.90;99.90;;;;;;5045479;28;20217;-42
2021/06/29 04:17:00;;;;;;;16.67;15.27;;;18.90;99.90;;;;;;5043732;28;20453;-41
2021/06/29 04:19:25;;;;;;;16.07;14.77;;;18.90;99.90;;;;;;5024826;28;20534;-41
2021/06/29 04:21:51;;;;;;;16.03;14.43;;;18.90;99.90;;;;;;5041795;28;20200;-40
2021/06/29 04:24:17;;;;;;;15.97;14.47;;;18.90;99.90;;;;;;5036189;28;20284;-42
2021/06/29 04:26:43;;;;;;;15.93;14.67;;;18.90;99.90;;;;;;5044394;28;20585;-41
2021/06/29 04:29:08;;;;;;;15.30;14.00;;;19.00;99.90;;;;;;5046042;28;20814;-45
2021/06/29 04:31:34;;;;;;;17.40;15.53;;;19.10;99.90;;;;;;5046266;28;20513;-41
2021/06/29 04:34:00;;;;;;;14.43;13.23;;;19.10;99.90;;;;;;5044979;28;20220;-43
2021/06/29 04:36:26;;;;;;;14.20;12.90;;;19.20;99.90;;;;;;5046156;28;20192;-41
2021/06/29 04:38:52;;;;;;;15.43;14.13;;;19.20;99.90;;;;;;5040774;28;20534;-43
2021/06/29 04:41:17;;;;;;;16.47;14.87;;;19.30;99.90;;;;;;5041369;28;20773;-42
2021/06/29 04:43:45;;;;;;;17.93;16.20;;;19.30;99.90;;;;;;5045143;28;20221;-41
2021/06/29 04:46:11;;;;;;;16.17;14.67;;;19.40;99.90;;;;;;5046112;28;20226;-43
2021/06/29 04:48:38;;;;;;;15.30;13.90;;;19.50;99.90;;;;;;5044194;28;20435;-42
2021/06/29 04:51:06;;;;;;;14.50;13.23;;;19.60;99.90;;;;;;5045969;28;21149;-44
2021/06/29 04:53:32;;;;;;;15.90;14.43;;;19.70;99.90;;;;;;5042281;28;20438;-41
2021/06/29 04:55:58;;;;;;;15.33;13.97;;;19.80;99.90;;;;;;5041024;28;20951;-41
2021/06/29 04:58:24;;;;;;;14.33;13.07;;;19.90;99.90;;;;;;5045584;28;20412;-43
2021/06/29 05:00:50;;;;;;;14.23;12.93;;;20.10;99.90;;;;;;5045758;28;20568;-42
2021/06/29 05:03:17;;;;;;;14.90;13.40;;;20.10;99.90;;;;;;5044870;28;20428;-44
2021/06/29 05:05:42;;;;;;;17.53;13.30;;;20.20;99.90;;;;;;5044533;28;20432;-40
2021/06/29 05:08:11;;;;;;;14.00;12.77;;;20.20;99.90;;;;;;5048292;28;20458;-44
2021/06/29 05:10:37;;;;;;;12.47;11.47;;;20.20;99.90;;;;;;5039165;28;20228;-41
2021/06/29 05:13:03;;;;;;;14.40;13.10;;;20.30;99.90;;;;;;5048884;28;20467;-42
2021/06/29 05:15:29;;;;;;;13.40;12.17;;;20.40;99.90;;;;;;5047922;28;20463;-40
2021/06/29 05:17:55;;;;;;;14.23;12.97;;;20.40;99.90;;;;;;5049207;28;20428;-41
2021/06/29 05:20:21;;;;;;;14.93;13.60;;;20.40;99.90;;;;;;5049016;28;20919;-42
2021/06/29 05:22:47;;;;;;;13.77;12.50;;;20.50;99.90;;;;;;5048826;28;20485;-42
2021/06/29 05:25:13;;;;;;;13.20;12.07;;;20.50;99.90;;;;;;5037362;28;20201;-43
2021/06/29 05:27:40;;;;;;;14.27;13.07;;;20.40;99.90;;;;;;5049491;28;20197;-40
2021/06/29 05:30:08;;;;;;;14.50;13.20;;;20.40;99.90;;;;;;5048915;28;20432;-42
2021/06/29 05:32:34;;;;;;;15.83;14.33;;;20.40;99.90;;;;;;5049365;28;20459;-40
2021/06/29 05:34:59;;;;;;;14.23;12.93;;;20.40;99.90;;;;;;5048127;28;20471;-42
2021/06/29 05:37:25;;;;;;;14.77;13.40;;;20.50;99.90;;;;;;5049181;28;20420;-43
2021/06/29 05:39:51;;;;;;;14.27;12.90;;;20.50;99.90;;;;;;5038762;28;20695;-41
2021/06/29 05:42:16;;;;;;;13.70;12.60;;;20.50;99.90;;;;;;5043466;28;20178;-40
2021/06/29 05:44:42;;;;;;;12.87;11.67;;;20.50;99.90;;;;;;5048045;28;20250;-41
2021/06/29 05:47:09;;;;;;;13.60;12.30;;;20.60;99.90;;;;;;5031512;28;20276;-41
2021/06/29 05:49:36;;;;;;;11.73;10.73;;;20.70;99.90;;;;;;5048275;28;20198;-41
2021/06/29 05:52:02;;;;;;;10.93;9.60;;;20.80;99.90;;;;;;5048625;28;20412;-41
2021/06/29 05:54:29;;;;;;;11.30;10.20;;;20.80;99.90;;;;;;5052614;28;20505;-40
2021/06/29 05:56:55;;;;;;;10.03;9.10;;;21.00;99.90;;;;;;5042592;28;20420;-40
2021/06/29 05:59:21;;;;;;;12.37;11.17;;;21.20;99.90;;;;;;5048590;28;20947;-43
2021/06/29 06:01:46;;;;;;;10.97;10.07;;;21.30;99.90;;;;;;5047964;28;20197;-42
2021/06/29 06:04:12;;;;;;;12.10;11.10;;;21.50;99.90;;;;;;5050778;28;20201;-42
2021/06/29 06:06:38;;;;;;;12.00;10.87;;;21.60;99.90;;;;;;5051642;28;20856;-40
2021/06/29 06:09:04;;;;;;;12.50;10.73;;;21.60;99.90;;;;;;5048715;28;20239;-44
2021/06/29 06:11:29;;;;;;;12.13;11.13;;;21.60;99.90;;;;;;5045699;28;20205;-45
2021/06/29 06:13:55;;;;;;;13.37;12.17;;;21.60;99.90;;;;;;5045979;28;20210;-42
2021/06/29 06:16:20;;;;;;;12.20;11.17;;;21.60;99.90;;;;;;5044157;28;20225;-44
2021/06/29 06:18:46;;;;;;;14.00;12.70;;;21.50;99.90;;;;;;5046141;28;20221;-40
2021/06/29 06:21:12;;;;;;;12.83;11.73;;;21.40;99.90;;;;;;5047815;28;20189;-41
2021/06/29 06:23:37;;;;;;;14.47;12.97;;;21.50;99.90;;;;;;5047019;28;20522;-42
2021/06/29 06:26:04;;;;;;;12.70;11.60;;;21.50;99.90;;;;;;5039908;28;20276;-41
2021/06/29 06:28:29;;;;;;;12.37;11.30;;;21.60;99.90;;;;;;5047529;28;20201;-46
2021/06/29 06:30:55;;;;;;;11.27;10.33;;;21.70;99.90;;;;;;5048227;28;20424;-42
2021/06/29 06:33:22;;;;;;;10.17;9.33;;;21.70;99.90;;;;;;5047507;28;20378;-45
2021/06/29 06:35:48;;;;;;;10.60;9.60;;;21.80;99.90;;;;;;5047442;28;20897;-45
2021/06/29 06:38:14;;;;;;;10.60;9.60;;;21.80;99.90;;;;;;5047378;28;20520;-42
2021/06/29 06:40:40;;;;;;;10.70;9.70;;;21.80;99.90;;;;;;5037017;28;20520;-41
2021/06/29 06:43:05;;;;;;;10.60;9.67;;;21.90;99.90;;;;;;5046770;28;20181;-42
2021/06/29 06:45:31;;;;;;;10.67;9.57;;;21.90;99.90;;;;;;5047647;28;20190;-43
2021/06/29 06:47:57;;;;;;;9.60;8.80;;;22.00;99.90;;;;;;5046357;28;20193;-41
2021/06/29 06:50:23;;;;;;;10.03;9.13;;;22.00;99.90;;;;;;5046505;28;20216;-42
2021/06/29 06:52:49;;;;;;;10.83;9.93;;;22.10;99.90;;;;;;5047139;28;20201;-40
2021/06/29 06:55:19;;;;;;;11.10;10.20;;;22.10;99.90;;;;;;5039894;28;20962;-44
2021/06/29 06:57:44;;;;;;;10.63;9.73;;;22.20;99.90;;;;;;5045609;28;20428;-43
2021/06/29 07:00:11;;;;;;;11.73;10.63;;;22.40;99.90;;;;;;5047546;28;20773;-41
2021/06/29 07:02:37;;;;;;;10.13;9.23;;;22.40;99.90;;;;;;5047193;28;20217;-42
2021/06/29 07:05:07;;;;;;;8.97;8.20;;;22.50;99.90;;;;;;5046380;28;20440;-41
2021/06/29 07:07:33;;;;;;;9.10;8.30;;;22.60;99.90;;;;;;5047087;28;20428;-42
2021/06/29 07:09:58;;;;;;;9.13;8.33;;;22.60;99.90;;;;;;5042016;28;20460;-43
2021/06/29 07:12:24;;;;;;;8.73;8.03;;;22.50;99.90;;;;;;5046082;28;20406;-42
2021/06/29 07:14:50;;;;;;;9.40;8.53;;;22.50;99.90;;;;;;5045848;28;20267;-41
2021/06/29 07:17:16;;;;;;;9.80;8.90;;;22.50;99.90;;;;;;5045780;28;20416;-41
2021/06/29 07:20:01;;;;;;;9.87;9.07;;;22.40;99.90;;;;;;5046898;28;20255;-46
2021/06/29 07:22:26;;;;;;;11.27;10.27;;;22.20;99.90;;;;;;5046820;28;20436;-42
2021/06/29 07:24:52;;;;;;;13.03;11.83;;;22.10;99.90;;;;;;5041511;28;20193;-42
2021/06/29 07:27:18;;;;;;;13.40;12.30;;;22.00;99.90;;;;;;5034873;28;20181;-44
2021/06/29 07:29:43;;;;;;;13.23;12.03;;;22.00;99.90;;;;;;5046456;28;20219;-43
2021/06/29 07:32:10;;;;;;;12.27;11.17;;;21.90;99.90;;;;;;5047136;28;20516;-43
2021/06/29 07:34:35;;;;;;;13.00;11.80;;;21.90;99.90;;;;;;5046123;28;20301;-40
2021/06/29 07:37:01;;;;;;;11.93;10.90;;;21.80;99.90;;;;;;5046365;28;20511;-40
2021/06/29 07:39:27;;;;;;;13.20;12.10;;;21.80;99.90;;;;;;5046652;28;20652;-45
2021/06/29 07:41:53;;;;;;;13.17;11.97;;;21.70;99.90;;;;;;5032255;28;20435;-42
2021/06/29 07:44:18;;;;;;;12.50;11.30;;;21.80;99.90;;;;;;5045879;28;20190;-46
2021/06/29 07:46:44;;;;;;;12.87;11.77;;;21.80;99.90;;;;;;5046353;28;20201;-45
2021/06/29 07:49:10;;;;;;;11.97;10.97;;;21.90;99.90;;;;;;5047030;28;20682;-42
2021/06/29 07:51:36;;;;;;;11.50;10.40;;;22.00;99.90;;;;;;5046611;28;20193;-42
2021/06/29 07:54:01;;;;;;;11.07;10.10;;;22.10;99.90;;;;;;5045455;28;20213;-44
2021/06/29 07:56:27;;;;;;;11.67;10.57;;;22.20;99.90;;;;;;5038297;28;20212;-41
2021/06/29 07:58:53;;;;;;;10.13;9.07;;;22.10;99.90;;;;;;5046395;28;20189;-42
2021/06/29 08:01:20;;;;;;;8.90;8.20;;;22.10;99.90;;;;;;5046246;28;20757;-41
2021/06/29 08:03:46;;;;;;;9.33;8.40;;;22.10;99.90;;;;;;5045855;28;20259;-44
2021/06/29 08:06:12;;;;;;;9.23;8.43;;;22.10;99.90;;;;;;5044940;28;20424;-40
2021/06/29 08:08:38;;;;;;;8.50;7.80;;;22.10;99.90;;;;;;5045867;28;20518;-44
2021/06/29 08:11:06;;;;;;;10.00;8.40;;;22.10;99.90;;;;;;5037880;28;20777;-44
2021/06/29 08:13:32;;;;;;;7.70;7.00;;;22.00;99.90;;;;;;5041913;28;20416;-43
2021/06/29 08:15:58;;;;;;;7.80;7.20;;;22.00;99.90;;;;;;5045137;28;20426;-43
2021/06/29 08:18:24;;;;;;;8.20;6.90;;;22.00;99.90;;;;;;5045894;28;20926;-41
2021/06/29 08:20:51;;;;;;;6.60;6.10;;;21.90;99.90;;;;;;5046262;28;20707;-42
2021/06/29 08:23:17;;;;;;;5.67;5.13;;;21.90;99.90;;;;;;5044875;28;20452;-44
2021/06/29 08:25:43;;;;;;;7.23;6.33;;;21.90;99.90;;;;;;5045005;28;21024;-43
2021/06/29 08:28:11;;;;;;;6.43;5.83;;;21.90;99.90;;;;;;5041557;28;20277;-41
2021/06/29 08:30:36;;;;;;;8.33;6.20;;;21.90;99.90;;;;;;5046293;28;20918;-42
2021/06/29 08:33:02;;;;;;;7.03;6.43;;;21.90;99.90;;;;;;5045906;28;20459;-44
2021/06/29 08:35:28;;;;;;;9.07;5.53;;;21.90;99.90;;;;;;5045895;28;20248;-43
2021/06/29 08:37:54;;;;;;;5.97;5.37;;;21.90;99.90;;;;;;5045446;28;20416;-42
2021/06/29 08:40:20;;;;;;;5.07;4.63;;;22.10;99.90;;;;;;5042361;28;20447;-44
2021/06/29 08:42:46;;;;;;;5.40;4.90;;;22.30;99.90;;;;;;5045498;28;20298;-42
2021/06/29 08:45:14;;;;;;;5.50;5.10;;;22.50;99.90;;;;;;5050131;28;20197;-47
2021/06/29 08:47:40;;;;;;;5.70;5.20;;;22.70;99.90;;;;;;5049885;28;20426;-42
2021/06/29 08:50:10;;;;;;;5.20;4.80;;;22.80;99.90;;;;;;5049554;28;20419;-42
2021/06/29 08:52:36;;;;;;;6.50;5.90;;;22.80;99.90;;;;;;5048412;28;20413;-42
2021/06/29 08:55:05;;;;;;;5.57;5.07;;;22.80;99.90;;;;;;5048950;28;20757;-41
2021/06/29 08:57:30;;;;;;;6.90;5.90;;;22.80;99.90;;;;;;5041715;28;20447;-42
2021/06/29 08:59:58;;;;;;;5.97;5.40;;;22.90;99.90;;;;;;5041257;28;20982;-43
2021/06/29 09:02:24;;;;;;;5.80;5.30;;;22.80;99.90;;;;;;5049606;28;20331;-45
2021/06/29 09:04:56;;;;;;;5.83;5.13;;;22.70;99.90;;;;;;5048402;28;20415;-45
2021/06/29 09:07:26;;;;;;;6.80;6.20;;;22.60;99.90;;;;;;5049666;28;20424;-46
2021/06/29 09:09:54;;;;;;;10.30;9.17;;;22.50;99.90;;;;;;5049166;28;20882;-45
2021/06/29 09:12:49;;;;;;;11.43;10.53;;;22.40;99.90;;;;;;5040064;28;20432;-42
2021/06/29 09:15:30;;;;;;;11.47;10.33;;;22.30;99.90;;;;;;5041262;28;20866;-41
2021/06/29 09:18:07;;;;;;;12.60;11.50;;;22.20;99.90;;;;;;5049476;28;20508;-42
2021/06/29 09:21:03;;;;;;;13.43;12.13;;;22.10;99.90;;;;;;5047534;28;20439;-43
2021/06/29 09:23:32;;;;;;;14.50;13.10;;;22.20;99.90;;;;;;5047989;28;20432;-43
2021/06/29 09:26:08;;;;;;;16.83;15.20;;;22.20;99.90;;;;;;5043321;28;20448;-44
2021/06/29 09:28:38;;;;;;;15.23;13.90;;;22.30;99.90;;;;;;5046420;28;20435;-44
2021/06/29 09:31:10;;;;;;;16.40;14.83;;;22.30;99.90;;;;;;5049210;28;20497;-42
2021/06/29 09:33:39;;;;;;;15.27;13.87;;;22.30;99.90;;;;;;5048433;28;20424;-45
2021/06/29 09:36:16;;;;;;;16.90;15.23;;;22.30;99.90;;;;;;5048530;28;20425;-45
2021/06/29 09:38:45;;;;;;;16.80;15.20;;;22.40;99.90;;;;;;5048995;28;20436;-42
2021/06/29 09:41:16;;;;;;;16.97;15.27;;;22.50;99.90;;;;;;5042892;28;20437;-42
2021/06/29 09:43:44;;;;;;;17.03;15.43;;;22.60;99.90;;;;;;5046659;28;20458;-44
2021/06/29 09:46:12;;;;;;;16.93;15.20;;;22.70;99.90;;;;;;5048636;28;20469;-44
2021/06/29 09:48:44;;;;;;;15.27;13.67;;;22.70;99.90;;;;;;5047282;28;20432;-42
2021/06/29 09:51:24;;;;;;;20.17;18.13;;;22.70;99.90;;;;;;5048356;28;20436;-47
2021/06/29 09:53:52;;;;;;;19.70;17.70;;;22.70;99.90;;;;;;5047565;28;20420;-42
2021/06/29 09:56:25;;;;;;;18.60;16.90;;;22.70;99.90;;;;;;5041578;28;20421;-41
2021/06/29 09:58:55;;;;;;;22.17;20.00;;;22.80;99.90;;;;;;5041937;28;20895;-43
2021/06/29 10:01:26;;;;;;;23.50;21.13;;;23.00;99.90;;;;;;5043462;28;20466;-41
2021/06/29 10:03:53;;;;;;;22.43;20.30;;;22.90;99.90;;;;;;5048024;28;20820;-41
2021/06/29 10:06:21;;;;;;;19.87;17.87;;;23.00;99.90;;;;;;5048062;28;20519;-42
2021/06/29 10:08:50;;;;;;;23.10;21.10;;;23.10;99.90;;;;;;5048310;28;20439;-42
2021/06/29 10:11:28;;;;;;;23.00;20.80;;;23.20;99.90;;;;;;5042510;28;20995;-41
2021/06/29 10:13:59;;;;;;;20.23;18.33;;;23.30;99.90;;;;;;5046807;28;20525;-42
2021/06/29 10:16:28;;;;;;;21.63;19.53;;;23.30;99.90;;;;;;5047017;28;20421;-41
2021/06/29 10:21:27;;;;;;;22.90;20.73;;;23.70;99.90;;;;;;5048214;28;20797;-46
2021/06/29 10:23:53;;;;;;;22.03;19.73;;;23.90;99.90;;;;;;5047161;28;20750;-46
2021/06/29 10:26:20;;;;;;;21.20;19.23;;;23.90;99.90;;;;;;5043628;28;20878;-44
2021/06/29 10:28:47;;;;;;;21.50;19.60;;;24.00;99.90;;;;;;5041356;28;20762;-43
2021/06/29 10:31:21;;;;;;;20.30;18.60;;;24.10;99.90;;;;;;5048275;28;20476;-46
2021/06/29 10:33:48;;;;;;;20.70;18.90;;;24.20;99.90;;;;;;5047056;28;20416;-42
2021/06/29 10:36:14;;;;;;;21.83;19.73;;;24.30;99.90;;;;;;5046965;28;20412;-43
2021/06/29 10:38:40;;;;;;;21.57;19.53;;;24.20;99.90;;;;;;5047339;28;20784;-44
2021/06/29 10:41:06;;;;;;;20.97;18.87;;;24.10;99.90;;;;;;5045942;28;20918;-47
2021/06/29 10:43:36;;;;;;;21.63;19.63;;;24.10;99.90;;;;;;5039278;28;20630;-43
2021/06/29 10:46:02;;;;;;;21.93;19.70;;;23.90;99.90;;;;;;5047353;28;20523;-44
2021/06/29 10:48:29;;;;;;;19.50;17.80;;;23.80;99.90;;;;;;5046116;28;20417;-44
2021/06/29 10:50:56;;;;;;;20.90;18.73;;;23.70;99.90;;;;;;5047447;28;20462;-42
2021/06/29 10:53:45;;;;;;;21.80;19.90;;;23.70;99.90;;;;;;5046245;28;20540;-43
2021/06/29 10:56:19;;;;;;;21.53;19.43;;;23.80;99.90;;;;;;5047445;28;20421;-44
2021/06/29 10:58:47;;;;;;;22.93;20.73;;;23.90;99.90;;;;;;5039989;28;20423;-45
2021/06/29 11:01:23;;;;;;;23.17;21.07;;;24.10;99.90;;;;;;5046882;28;20420;-41
2021/06/29 11:03:55;;;;;;;22.83;20.73;;;24.40;99.90;;;;;;5046144;28;20411;-42
2021/06/29 11:06:37;;;;;;;21.10;19.20;;;24.50;99.90;;;;;;5046557;28;20416;-42
2021/06/29 11:09:04;;;;;;;21.10;19.10;;;24.70;99.90;;;;;;5045612;28;20826;-45
2021/06/29 11:11:32;;;;;;;20.77;18.67;;;24.70;99.90;;;;;;5046979;28;20416;-42
2021/06/29 11:13:58;;;;;;;19.50;17.80;;;24.80;99.90;;;;;;5032352;28;20484;-44
2021/06/29 11:16:55;;;;;;;19.27;17.57;;;24.80;99.90;;;;;;5045927;28;20502;-44
2021/06/29 11:19:21;;;;;;;19.47;17.57;;;24.70;99.90;;;;;;5034553;28;20412;-43
2021/06/29 11:21:48;;;;;;;21.50;19.47;;;24.70;99.90;;;;;;5046690;28;20566;-44
2021/06/29 11:24:37;;;;;;;22.50;20.50;;;24.70;99.90;;;;;;5046441;28;20463;-46
2021/06/29 11:27:05;;;;;;;20.60;18.73;;;24.50;99.90;;;;;;5044365;28;20942;-44
2021/06/29 11:29:44;;;;;;;21.00;19.00;;;24.50;99.90;;;;;;5040665;28;20416;-41
2021/06/29 11:32:31;;;;;;;20.70;18.70;;;24.50;99.90;;;;;;5046120;28;20444;-43
2021/06/29 11:35:35;;;;;;;21.87;19.80;;;24.70;99.90;;;;;;5045206;28;20505;-46
2021/06/29 11:38:09;;;;;;;20.40;18.30;;;25.00;99.90;;;;;;5046820;28;20938;-42
2021/06/29 11:40:35;;;;;;;23.70;21.40;;;25.10;99.90;;;;;;5046487;28;20459;-42
2021/06/29 11:43:12;;;;;;;22.10;19.90;;;25.00;99.90;;;;;;5042002;28;20483;-45
2021/06/29 11:45:39;;;;;;;23.10;20.80;;;24.90;99.90;;;;;;5044198;28;20656;-43
2021/06/29 11:48:05;;;;;;;22.50;20.40;;;24.80;99.90;;;;;;5046170;28;20431;-43
2021/06/29 11:50:42;;;;;;;22.30;20.20;;;24.70;99.90;;;;;;5046264;28;20932;-44
2021/06/29 11:53:24;;;;;;;23.40;21.20;;;24.70;99.90;;;;;;5045994;28;20424;-45
2021/06/29 11:55:49;;;;;;;26.87;24.20;;;24.80;99.90;;;;;;5045840;28;20456;-43
2021/06/29 11:58:15;;;;;;;23.60;21.40;;;24.80;99.90;;;;;;5038272;28;21056;-44
2021/06/29 12:00:41;;;;;;;26.80;23.90;;;24.60;99.90;;;;;;5044069;28;20174;-46
2021/06/29 12:03:12;;;;;;;22.93;20.63;;;24.40;99.90;;;;;;5045564;28;20434;-41
2021/06/29 12:05:39;;;;;;;25.87;23.53;;;24.30;99.90;;;;;;5046278;28;20248;-43
2021/06/29 12:08:06;;;;;;;26.20;23.37;;;24.10;99.90;;;;;;5045842;28;20451;-42
2021/06/29 12:10:55;;;;;;;21.77;19.70;;;24.00;99.90;;;;;;5046207;28;20432;-45
2021/06/29 12:13:25;;;;;;;25.07;22.60;;;24.00;99.90;;;;;;5038018;28;20437;-47
2021/06/29 12:15:53;;;;;;;24.73;22.17;;;24.00;99.90;;;;;;5045210;28;20507;-42
2021/06/29 12:18:24;;;;;;;23.00;20.80;;;24.00;99.90;;;;;;5052671;28;20797;-42
2021/06/29 12:20:53;;;;;;;21.90;18.00;;;23.90;99.90;;;;;;5052489;28;20411;-41
2021/06/29 12:23:23;;;;;;;19.90;18.17;;;24.00;99.90;;;;;;5051723;28;20404;-43
2021/06/29 12:25:51;;;;;;;18.63;16.83;;;24.20;99.90;;;;;;5053025;28;20419;-42
2021/06/29 12:28:23;;;;;;;20.37;18.50;;;24.40;99.90;;;;;;5047293;28;20781;-42
2021/06/29 12:31:00;;;;;;;18.17;16.37;;;24.60;99.90;;;;;;5044823;28;20519;-43
2021/06/29 12:33:34;;;;;;;17.93;16.13;;;24.80;99.90;;;;;;5051901;28;20472;-41
2021/06/29 12:36:20;;;;;;;17.10;15.57;;;25.00;99.90;;;;;;5052354;28;20516;-41